sensor_id;sensor_type;location;lat;lon;timestamp;P1;durP1;ratioP1;P2;durP2;ratioP2
54416;SDS011;40326;51.220;7.250;2022-07-12T00:01:02;7.80;;;5.53;;
54416;SDS011;40326;51.220;7.250;2022-07-12T00:03:28;6.72;;;5.50;;
54416;SDS011;40326;51.220;7.250;2022-07-12T00:05:54;6.78;;;5.20;;
54416;SDS011;40326;51.220;7.250;2022-07-12T00:08:19;7.35;;;5.15;;
54416;SDS011;40326;51.220;7.250;2022-07-12T00:10:45;7.63;;;5.72;;
54416;SDS011;40326;51.220;7.250;2022-07-12T00:13:10;7.63;;;5.97;;
54416;SDS011;40326;51.220;7.250;2022-07-12T00:15:36;6.90;;;5.32;;
54416;SDS011;40326;51.220;7.250;2022-07-12T00:18:01;7.18;;;5.15;;
54416;SDS011;40326;51.220;7.250;2022-07-12T00:20:27;7.80;;;5.53;;
54416;SDS011;40326;51.220;7.250;2022-07-12T00:22:53;6.65;;;5.50;;
54416;SDS011;40326;51.220;7.250;2022-07-12T00:25:19;8.02;;;4.97;;
54416;SDS011;40326;51.220;7.250;2022-07-12T00:27:45;6.82;;;5.15;;
54416;SDS011;40326;51.220;7.250;2022-07-12T00:30:10;8.00;;;5.35;;
54416;SDS011;40326;51.220;7.250;2022-07-12T00:32:36;7.38;;;5.00;;
54416;SDS011;40326;51.220;7.250;2022-07-12T00:35:01;7.72;;;6.00;;
54416;SDS011;40326;51.220;7.250;2022-07-12T00:37:27;8.05;;;6.00;;
54416;SDS011;40326;51.220;7.250;2022-07-12T00:39:53;8.90;;;5.43;;
54416;SDS011;40326;51.220;7.250;2022-07-12T00:42:18;6.22;;;4.97;;
54416;SDS011;40326;51.220;7.250;2022-07-12T00:44:44;6.43;;;4.80;;
54416;SDS011;40326;51.220;7.250;2022-07-12T00:47:17;28.35;;;5.72;;
54416;SDS011;40326;51.220;7.250;2022-07-12T00:52:37;8.25;;;4.80;;
54416;SDS011;40326;51.220;7.250;2022-07-12T00:55:06;7.00;;;5.32;;
54416;SDS011;40326;51.220;7.250;2022-07-12T00:57:33;7.70;;;5.03;;
54416;SDS011;40326;51.220;7.250;2022-07-12T00:59:59;6.60;;;5.07;;
54416;SDS011;40326;51.220;7.250;2022-07-12T01:02:25;6.47;;;4.90;;
54416;SDS011;40326;51.220;7.250;2022-07-12T01:04:51;6.15;;;4.80;;
54416;SDS011;40326;51.220;7.250;2022-07-12T01:07:19;6.93;;;5.65;;
54416;SDS011;40326;51.220;7.250;2022-07-12T01:09:45;8.70;;;5.95;;
54416;SDS011;40326;51.220;7.250;2022-07-12T01:12:10;9.38;;;6.95;;
54416;SDS011;40326;51.220;7.250;2022-07-12T01:14:37;7.18;;;5.57;;
54416;SDS011;40326;51.220;7.250;2022-07-12T01:17:05;7.30;;;5.43;;
54416;SDS011;40326;51.220;7.250;2022-07-12T01:19:31;7.72;;;5.25;;
54416;SDS011;40326;51.220;7.250;2022-07-12T01:21:57;7.32;;;5.47;;
54416;SDS011;40326;51.220;7.250;2022-07-12T01:24:26;7.13;;;5.45;;
54416;SDS011;40326;51.220;7.250;2022-07-12T01:26:51;7.65;;;6.00;;
54416;SDS011;40326;51.220;7.250;2022-07-12T01:29:18;9.38;;;5.47;;
54416;SDS011;40326;51.220;7.250;2022-07-12T01:31:44;7.47;;;5.13;;
54416;SDS011;40326;51.220;7.250;2022-07-12T01:34:10;7.72;;;5.45;;
54416;SDS011;40326;51.220;7.250;2022-07-12T01:36:35;7.20;;;5.20;;
54416;SDS011;40326;51.220;7.250;2022-07-12T01:39:03;8.80;;;6.18;;
54416;SDS011;40326;51.220;7.250;2022-07-12T01:41:29;7.13;;;5.65;;
54416;SDS011;40326;51.220;7.250;2022-07-12T01:43:56;10.00;;;5.40;;
54416;SDS011;40326;51.220;7.250;2022-07-12T01:46:21;8.00;;;5.00;;
54416;SDS011;40326;51.220;7.250;2022-07-12T01:48:47;7.22;;;5.15;;
54416;SDS011;40326;51.220;7.250;2022-07-12T01:51:12;6.40;;;4.95;;
54416;SDS011;40326;51.220;7.250;2022-07-12T01:53:37;6.65;;;5.00;;
54416;SDS011;40326;51.220;7.250;2022-07-12T01:56:03;7.47;;;5.15;;
54416;SDS011;40326;51.220;7.250;2022-07-12T01:58:29;6.97;;;4.93;;
54416;SDS011;40326;51.220;7.250;2022-07-12T02:00:55;6.65;;;4.50;;
54416;SDS011;40326;51.220;7.250;2022-07-12T02:03:21;6.75;;;5.20;;
54416;SDS011;40326;51.220;7.250;2022-07-12T02:05:47;6.78;;;4.32;;
54416;SDS011;40326;51.220;7.250;2022-07-12T02:08:13;7.95;;;4.90;;
54416;SDS011;40326;51.220;7.250;2022-07-12T02:10:42;6.50;;;4.78;;
54416;SDS011;40326;51.220;7.250;2022-07-12T02:13:08;6.63;;;5.03;;
54416;SDS011;40326;51.220;7.250;2022-07-12T02:15:33;8.70;;;4.95;;
54416;SDS011;40326;51.220;7.250;2022-07-12T02:17:59;9.27;;;4.47;;
54416;SDS011;40326;51.220;7.250;2022-07-12T02:20:25;7.18;;;5.53;;
54416;SDS011;40326;51.220;7.250;2022-07-12T02:22:50;6.90;;;5.28;;
54416;SDS011;40326;51.220;7.250;2022-07-12T02:25:15;7.68;;;5.18;;
54416;SDS011;40326;51.220;7.250;2022-07-12T02:27:41;6.00;;;4.15;;
54416;SDS011;40326;51.220;7.250;2022-07-12T02:30:07;6.75;;;5.28;;
54416;SDS011;40326;51.220;7.250;2022-07-12T02:32:33;6.03;;;4.10;;
54416;SDS011;40326;51.220;7.250;2022-07-12T02:34:58;5.88;;;4.28;;
54416;SDS011;40326;51.220;7.250;2022-07-12T02:37:24;5.57;;;4.28;;
54416;SDS011;40326;51.220;7.250;2022-07-12T02:39:50;8.75;;;5.50;;
54416;SDS011;40326;51.220;7.250;2022-07-12T02:42:15;6.95;;;5.63;;
54416;SDS011;40326;51.220;7.250;2022-07-12T02:44:40;8.43;;;5.70;;
54416;SDS011;40326;51.220;7.250;2022-07-12T02:47:06;6.03;;;4.88;;
54416;SDS011;40326;51.220;7.250;2022-07-12T02:49:31;6.18;;;4.30;;
54416;SDS011;40326;51.220;7.250;2022-07-12T02:51:56;5.78;;;4.25;;
54416;SDS011;40326;51.220;7.250;2022-07-12T02:54:22;6.03;;;4.50;;
54416;SDS011;40326;51.220;7.250;2022-07-12T02:56:47;5.57;;;4.05;;
54416;SDS011;40326;51.220;7.250;2022-07-12T02:59:13;6.30;;;4.18;;
54416;SDS011;40326;51.220;7.250;2022-07-12T03:01:38;6.70;;;4.20;;
54416;SDS011;40326;51.220;7.250;2022-07-12T03:04:03;8.52;;;4.75;;
54416;SDS011;40326;51.220;7.250;2022-07-12T03:06:29;7.05;;;4.45;;
54416;SDS011;40326;51.220;7.250;2022-07-12T03:08:54;6.32;;;4.30;;
54416;SDS011;40326;51.220;7.250;2022-07-12T03:11:19;7.20;;;4.47;;
54416;SDS011;40326;51.220;7.250;2022-07-12T03:13:45;7.97;;;4.28;;
54416;SDS011;40326;51.220;7.250;2022-07-12T03:16:10;6.45;;;4.75;;
54416;SDS011;40326;51.220;7.250;2022-07-12T03:18:36;6.68;;;4.60;;
54416;SDS011;40326;51.220;7.250;2022-07-12T03:21:03;8.10;;;4.97;;
54416;SDS011;40326;51.220;7.250;2022-07-12T03:23:29;6.78;;;5.13;;
54416;SDS011;40326;51.220;7.250;2022-07-12T03:25:54;7.18;;;4.72;;
54416;SDS011;40326;51.220;7.250;2022-07-12T03:28:20;7.72;;;4.88;;
54416;SDS011;40326;51.220;7.250;2022-07-12T03:30:45;9.75;;;4.90;;
54416;SDS011;40326;51.220;7.250;2022-07-12T03:33:10;7.68;;;4.85;;
54416;SDS011;40326;51.220;7.250;2022-07-12T03:35:36;6.95;;;4.57;;
54416;SDS011;40326;51.220;7.250;2022-07-12T03:38:02;7.00;;;4.90;;
54416;SDS011;40326;51.220;7.250;2022-07-12T03:40:30;9.57;;;5.03;;
54416;SDS011;40326;51.220;7.250;2022-07-12T03:42:56;8.13;;;4.65;;
54416;SDS011;40326;51.220;7.250;2022-07-12T03:45:23;7.13;;;4.72;;
54416;SDS011;40326;51.220;7.250;2022-07-12T03:47:48;24.20;;;6.18;;
54416;SDS011;40326;51.220;7.250;2022-07-12T03:50:14;13.30;;;6.80;;
54416;SDS011;40326;51.220;7.250;2022-07-12T03:52:40;9.07;;;5.47;;
54416;SDS011;40326;51.220;7.250;2022-07-12T03:55:07;9.07;;;5.25;;
54416;SDS011;40326;51.220;7.250;2022-07-12T03:57:34;7.05;;;5.05;;
54416;SDS011;40326;51.220;7.250;2022-07-12T03:59:59;10.80;;;5.47;;
54416;SDS011;40326;51.220;7.250;2022-07-12T04:02:25;8.10;;;5.53;;
54416;SDS011;40326;51.220;7.250;2022-07-12T04:04:50;7.85;;;5.55;;
54416;SDS011;40326;51.220;7.250;2022-07-12T04:07:16;8.30;;;5.72;;
54416;SDS011;40326;51.220;7.250;2022-07-12T04:09:42;10.70;;;6.78;;
54416;SDS011;40326;51.220;7.250;2022-07-12T04:12:08;8.38;;;6.10;;
54416;SDS011;40326;51.220;7.250;2022-07-12T04:14:33;7.22;;;5.43;;
54416;SDS011;40326;51.220;7.250;2022-07-12T04:16:59;7.90;;;6.28;;
54416;SDS011;40326;51.220;7.250;2022-07-12T04:19:24;14.20;;;6.32;;
54416;SDS011;40326;51.220;7.250;2022-07-12T04:21:52;9.52;;;7.30;;
54416;SDS011;40326;51.220;7.250;2022-07-12T04:24:19;9.77;;;7.05;;
54416;SDS011;40326;51.220;7.250;2022-07-12T04:26:44;10.48;;;7.47;;
54416;SDS011;40326;51.220;7.250;2022-07-12T04:29:09;11.95;;;8.50;;
54416;SDS011;40326;51.220;7.250;2022-07-12T04:31:35;9.90;;;7.38;;
54416;SDS011;40326;51.220;7.250;2022-07-12T04:34:00;12.95;;;8.43;;
54416;SDS011;40326;51.220;7.250;2022-07-12T04:36:25;11.65;;;7.85;;
54416;SDS011;40326;51.220;7.250;2022-07-12T04:38:51;11.05;;;8.05;;
54416;SDS011;40326;51.220;7.250;2022-07-12T04:41:16;13.32;;;8.43;;
54416;SDS011;40326;51.220;7.250;2022-07-12T04:43:41;10.57;;;7.78;;
54416;SDS011;40326;51.220;7.250;2022-07-12T04:46:07;14.52;;;9.15;;
54416;SDS011;40326;51.220;7.250;2022-07-12T04:48:33;13.98;;;7.75;;
54416;SDS011;40326;51.220;7.250;2022-07-12T04:50:58;12.48;;;9.00;;
54416;SDS011;40326;51.220;7.250;2022-07-12T04:53:24;15.23;;;9.32;;
54416;SDS011;40326;51.220;7.250;2022-07-12T04:55:49;13.95;;;9.90;;
54416;SDS011;40326;51.220;7.250;2022-07-12T04:58:14;15.07;;;10.13;;
54416;SDS011;40326;51.220;7.250;2022-07-12T05:00:40;15.18;;;9.68;;
54416;SDS011;40326;51.220;7.250;2022-07-12T05:03:05;13.80;;;9.82;;
54416;SDS011;40326;51.220;7.250;2022-07-12T05:05:30;14.20;;;9.68;;
54416;SDS011;40326;51.220;7.250;2022-07-12T05:07:56;15.43;;;9.65;;
54416;SDS011;40326;51.220;7.250;2022-07-12T05:10:21;11.68;;;8.13;;
54416;SDS011;40326;51.220;7.250;2022-07-12T05:12:46;12.68;;;9.40;;
54416;SDS011;40326;51.220;7.250;2022-07-12T05:15:12;13.20;;;9.48;;
54416;SDS011;40326;51.220;7.250;2022-07-12T05:17:37;11.40;;;7.97;;
54416;SDS011;40326;51.220;7.250;2022-07-12T05:20:03;11.15;;;8.93;;
54416;SDS011;40326;51.220;7.250;2022-07-12T05:22:28;11.75;;;9.10;;
54416;SDS011;40326;51.220;7.250;2022-07-12T05:24:54;14.30;;;9.30;;
54416;SDS011;40326;51.220;7.250;2022-07-12T05:27:19;13.15;;;9.27;;
54416;SDS011;40326;51.220;7.250;2022-07-12T05:29:44;11.77;;;9.57;;
54416;SDS011;40326;51.220;7.250;2022-07-12T05:32:10;12.40;;;9.25;;
54416;SDS011;40326;51.220;7.250;2022-07-12T05:34:36;13.63;;;9.68;;
54416;SDS011;40326;51.220;7.250;2022-07-12T05:37:03;11.85;;;9.98;;
54416;SDS011;40326;51.220;7.250;2022-07-12T05:39:29;9.18;;;8.27;;
54416;SDS011;40326;51.220;7.250;2022-07-12T05:41:54;7.93;;;6.20;;
54416;SDS011;40326;51.220;7.250;2022-07-12T05:44:19;8.07;;;4.65;;
54416;SDS011;40326;51.220;7.250;2022-07-12T05:46:45;5.28;;;3.92;;
54416;SDS011;40326;51.220;7.250;2022-07-12T05:49:11;5.05;;;4.05;;
54416;SDS011;40326;51.220;7.250;2022-07-12T05:51:37;4.35;;;3.08;;
54416;SDS011;40326;51.220;7.250;2022-07-12T05:56:46;4.00;;;2.67;;
54416;SDS011;40326;51.220;7.250;2022-07-12T05:59:11;3.75;;;2.60;;
54416;SDS011;40326;51.220;7.250;2022-07-12T06:01:37;4.18;;;2.42;;
54416;SDS011;40326;51.220;7.250;2022-07-12T06:04:02;4.82;;;2.65;;
54416;SDS011;40326;51.220;7.250;2022-07-12T06:06:27;4.15;;;2.53;;
54416;SDS011;40326;51.220;7.250;2022-07-12T06:08:53;4.75;;;2.70;;
54416;SDS011;40326;51.220;7.250;2022-07-12T06:11:18;3.80;;;2.40;;
54416;SDS011;40326;51.220;7.250;2022-07-12T06:13:43;5.38;;;3.10;;
54416;SDS011;40326;51.220;7.250;2022-07-12T06:16:09;5.78;;;3.05;;
54416;SDS011;40326;51.220;7.250;2022-07-12T06:18:35;4.68;;;3.22;;
54416;SDS011;40326;51.220;7.250;2022-07-12T06:21:01;3.97;;;3.05;;
54416;SDS011;40326;51.220;7.250;2022-07-12T06:23:26;4.72;;;3.30;;
54416;SDS011;40326;51.220;7.250;2022-07-12T06:25:51;5.85;;;3.15;;
54416;SDS011;40326;51.220;7.250;2022-07-12T06:28:17;5.85;;;4.60;;
54416;SDS011;40326;51.220;7.250;2022-07-12T06:30:42;5.38;;;3.80;;
54416;SDS011;40326;51.220;7.250;2022-07-12T06:33:08;5.45;;;3.63;;
54416;SDS011;40326;51.220;7.250;2022-07-12T06:35:33;6.30;;;4.07;;
54416;SDS011;40326;51.220;7.250;2022-07-12T06:37:59;5.35;;;4.15;;
54416;SDS011;40326;51.220;7.250;2022-07-12T06:40:24;5.18;;;3.50;;
54416;SDS011;40326;51.220;7.250;2022-07-12T06:42:50;4.60;;;3.20;;
54416;SDS011;40326;51.220;7.250;2022-07-12T06:45:15;6.50;;;5.00;;
54416;SDS011;40326;51.220;7.250;2022-07-12T06:47:41;6.38;;;4.53;;
54416;SDS011;40326;51.220;7.250;2022-07-12T06:50:06;5.93;;;3.95;;
54416;SDS011;40326;51.220;7.250;2022-07-12T06:52:32;7.15;;;4.13;;
54416;SDS011;40326;51.220;7.250;2022-07-12T06:54:57;5.45;;;4.10;;
54416;SDS011;40326;51.220;7.250;2022-07-12T06:57:23;6.57;;;3.90;;
54416;SDS011;40326;51.220;7.250;2022-07-12T06:59:48;6.13;;;3.85;;
54416;SDS011;40326;51.220;7.250;2022-07-12T07:02:14;5.47;;;3.58;;
54416;SDS011;40326;51.220;7.250;2022-07-12T07:04:40;5.55;;;3.78;;
54416;SDS011;40326;51.220;7.250;2022-07-12T07:07:14;6.07;;;4.20;;
54416;SDS011;40326;51.220;7.250;2022-07-12T07:09:39;6.13;;;3.70;;
54416;SDS011;40326;51.220;7.250;2022-07-12T07:12:06;6.60;;;3.75;;
54416;SDS011;40326;51.220;7.250;2022-07-12T07:14:32;5.30;;;3.65;;
54416;SDS011;40326;51.220;7.250;2022-07-12T07:16:58;4.95;;;3.85;;
54416;SDS011;40326;51.220;7.250;2022-07-12T07:19:23;5.03;;;2.97;;
54416;SDS011;40326;51.220;7.250;2022-07-12T07:21:51;4.68;;;2.70;;
54416;SDS011;40326;51.220;7.250;2022-07-12T07:24:16;4.45;;;2.70;;
54416;SDS011;40326;51.220;7.250;2022-07-12T07:26:41;4.93;;;2.60;;
54416;SDS011;40326;51.220;7.250;2022-07-12T07:29:07;5.03;;;3.10;;
54416;SDS011;40326;51.220;7.250;2022-07-12T07:31:51;4.80;;;3.13;;
54416;SDS011;40326;51.220;7.250;2022-07-12T07:34:16;4.68;;;3.30;;
54416;SDS011;40326;51.220;7.250;2022-07-12T07:36:41;5.65;;;2.83;;
54416;SDS011;40326;51.220;7.250;2022-07-12T07:39:07;4.78;;;2.67;;
54416;SDS011;40326;51.220;7.250;2022-07-12T07:41:32;4.55;;;2.70;;
54416;SDS011;40326;51.220;7.250;2022-07-12T07:43:57;5.20;;;2.78;;
54416;SDS011;40326;51.220;7.250;2022-07-12T07:46:23;4.18;;;2.55;;
54416;SDS011;40326;51.220;7.250;2022-07-12T07:48:48;5.65;;;2.55;;
54416;SDS011;40326;51.220;7.250;2022-07-12T07:51:13;4.43;;;2.42;;
54416;SDS011;40326;51.220;7.250;2022-07-12T07:53:39;3.50;;;2.00;;
54416;SDS011;40326;51.220;7.250;2022-07-12T07:56:04;4.05;;;2.45;;
54416;SDS011;40326;51.220;7.250;2022-07-12T07:58:30;3.90;;;2.10;;
54416;SDS011;40326;51.220;7.250;2022-07-12T08:00:55;4.40;;;2.40;;
54416;SDS011;40326;51.220;7.250;2022-07-12T08:03:21;4.05;;;2.38;;
54416;SDS011;40326;51.220;7.250;2022-07-12T08:05:47;4.20;;;2.40;;
54416;SDS011;40326;51.220;7.250;2022-07-12T08:08:13;3.95;;;2.05;;
54416;SDS011;40326;51.220;7.250;2022-07-12T08:10:39;4.13;;;2.53;;
54416;SDS011;40326;51.220;7.250;2022-07-12T08:13:04;3.70;;;1.98;;
54416;SDS011;40326;51.220;7.250;2022-07-12T08:15:30;3.90;;;2.15;;
54416;SDS011;40326;51.220;7.250;2022-07-12T08:17:56;4.00;;;2.13;;
54416;SDS011;40326;51.220;7.250;2022-07-12T08:20:22;3.78;;;2.00;;
54416;SDS011;40326;51.220;7.250;2022-07-12T08:22:48;5.00;;;2.00;;
54416;SDS011;40326;51.220;7.250;2022-07-12T08:25:14;4.32;;;1.83;;
54416;SDS011;40326;51.220;7.250;2022-07-12T08:27:40;3.72;;;1.80;;
54416;SDS011;40326;51.220;7.250;2022-07-12T08:30:05;3.58;;;2.10;;
54416;SDS011;40326;51.220;7.250;2022-07-12T08:32:32;4.15;;;1.77;;
54416;SDS011;40326;51.220;7.250;2022-07-12T08:34:58;3.08;;;1.65;;
54416;SDS011;40326;51.220;7.250;2022-07-12T08:37:23;3.80;;;1.80;;
54416;SDS011;40326;51.220;7.250;2022-07-12T08:39:48;4.30;;;1.70;;
54416;SDS011;40326;51.220;7.250;2022-07-12T08:42:14;2.65;;;1.52;;
54416;SDS011;40326;51.220;7.250;2022-07-12T08:44:41;3.35;;;1.67;;
54416;SDS011;40326;51.220;7.250;2022-07-12T08:47:07;5.25;;;1.70;;
54416;SDS011;40326;51.220;7.250;2022-07-12T08:49:33;3.75;;;1.45;;
54416;SDS011;40326;51.220;7.250;2022-07-12T08:51:59;2.78;;;1.40;;
54416;SDS011;40326;51.220;7.250;2022-07-12T08:54:24;1.80;;;1.23;;
54416;SDS011;40326;51.220;7.250;2022-07-12T08:56:49;1.98;;;1.00;;
54416;SDS011;40326;51.220;7.250;2022-07-12T08:59:16;2.47;;;1.30;;
54416;SDS011;40326;51.220;7.250;2022-07-12T09:01:44;2.60;;;1.30;;
54416;SDS011;40326;51.220;7.250;2022-07-12T09:04:16;2.25;;;1.00;;
54416;SDS011;40326;51.220;7.250;2022-07-12T09:06:46;2.47;;;1.20;;
54416;SDS011;40326;51.220;7.250;2022-07-12T09:09:24;1.75;;;1.02;;
54416;SDS011;40326;51.220;7.250;2022-07-12T09:12:02;1.80;;;1.00;;
54416;SDS011;40326;51.220;7.250;2022-07-12T09:14:27;1.55;;;1.00;;
54416;SDS011;40326;51.220;7.250;2022-07-12T09:17:03;2.47;;;0.82;;
54416;SDS011;40326;51.220;7.250;2022-07-12T09:19:35;3.60;;;1.10;;
54416;SDS011;40326;51.220;7.250;2022-07-12T09:22:01;2.20;;;1.40;;
54416;SDS011;40326;51.220;7.250;2022-07-12T09:24:27;1.77;;;1.08;;
54416;SDS011;40326;51.220;7.250;2022-07-12T09:26:53;2.42;;;1.17;;
54416;SDS011;40326;51.220;7.250;2022-07-12T09:29:24;1.80;;;1.05;;
54416;SDS011;40326;51.220;7.250;2022-07-12T09:31:51;1.52;;;0.85;;
54416;SDS011;40326;51.220;7.250;2022-07-12T09:34:37;2.13;;;1.10;;
54416;SDS011;40326;51.220;7.250;2022-07-12T09:39:53;1.67;;;0.82;;
54416;SDS011;40326;51.220;7.250;2022-07-12T09:42:19;3.30;;;0.90;;
54416;SDS011;40326;51.220;7.250;2022-07-12T09:44:45;1.83;;;0.90;;
54416;SDS011;40326;51.220;7.250;2022-07-12T09:47:11;2.28;;;1.02;;
54416;SDS011;40326;51.220;7.250;2022-07-12T09:49:38;1.20;;;0.70;;
54416;SDS011;40326;51.220;7.250;2022-07-12T09:52:05;2.63;;;0.95;;
54416;SDS011;40326;51.220;7.250;2022-07-12T09:54:31;1.30;;;0.90;;
54416;SDS011;40326;51.220;7.250;2022-07-12T09:57:04;1.95;;;1.00;;
54416;SDS011;40326;51.220;7.250;2022-07-12T09:59:38;1.40;;;0.88;;
54416;SDS011;40326;51.220;7.250;2022-07-12T10:02:04;1.40;;;0.90;;
54416;SDS011;40326;51.220;7.250;2022-07-12T10:04:30;3.40;;;1.00;;
54416;SDS011;40326;51.220;7.250;2022-07-12T10:06:57;1.55;;;0.90;;
54416;SDS011;40326;51.220;7.250;2022-07-12T10:09:23;1.63;;;1.05;;
54416;SDS011;40326;51.220;7.250;2022-07-12T10:11:51;1.90;;;0.90;;
54416;SDS011;40326;51.220;7.250;2022-07-12T10:14:17;1.65;;;0.90;;
54416;SDS011;40326;51.220;7.250;2022-07-12T10:16:45;4.38;;;1.00;;
54416;SDS011;40326;51.220;7.250;2022-07-12T10:21:56;2.05;;;1.15;;
54416;SDS011;40326;51.220;7.250;2022-07-12T10:27:02;2.13;;;0.93;;
54416;SDS011;40326;51.220;7.250;2022-07-12T10:29:49;2.92;;;1.10;;
54416;SDS011;40326;51.220;7.250;2022-07-12T10:32:34;1.77;;;1.10;;
54416;SDS011;40326;51.220;7.250;2022-07-12T10:37:25;1.58;;;0.90;;
54416;SDS011;40326;51.220;7.250;2022-07-12T10:42:41;1.73;;;0.88;;
54416;SDS011;40326;51.220;7.250;2022-07-12T10:45:28;2.00;;;0.85;;
54416;SDS011;40326;51.220;7.250;2022-07-12T10:48:06;1.25;;;0.90;;
54416;SDS011;40326;51.220;7.250;2022-07-12T11:01:12;1.80;;;0.90;;
54416;SDS011;40326;51.220;7.250;2022-07-12T11:03:38;1.05;;;0.90;;
54416;SDS011;40326;51.220;7.250;2022-07-12T11:06:12;1.20;;;0.83;;
54416;SDS011;40326;51.220;7.250;2022-07-12T11:08:55;1.42;;;0.88;;
54416;SDS011;40326;51.220;7.250;2022-07-12T11:11:29;1.90;;;1.00;;
54416;SDS011;40326;51.220;7.250;2022-07-12T11:14:01;0.85;;;0.80;;
54416;SDS011;40326;51.220;7.250;2022-07-12T11:16:27;1.52;;;0.80;;
54416;SDS011;40326;51.220;7.250;2022-07-12T11:18:54;1.55;;;0.95;;
54416;SDS011;40326;51.220;7.250;2022-07-12T11:21:21;1.33;;;0.85;;
54416;SDS011;40326;51.220;7.250;2022-07-12T11:23:47;3.22;;;1.02;;
54416;SDS011;40326;51.220;7.250;2022-07-12T11:26:13;3.78;;;1.02;;
54416;SDS011;40326;51.220;7.250;2022-07-12T11:28:39;2.15;;;1.00;;
54416;SDS011;40326;51.220;7.250;2022-07-12T11:31:07;2.17;;;0.70;;
54416;SDS011;40326;51.220;7.250;2022-07-12T11:33:35;1.30;;;0.80;;
54416;SDS011;40326;51.220;7.250;2022-07-12T11:36:03;2.50;;;0.85;;
54416;SDS011;40326;51.220;7.250;2022-07-12T11:38:34;1.63;;;0.88;;
54416;SDS011;40326;51.220;7.250;2022-07-12T11:41:02;1.88;;;0.90;;
54416;SDS011;40326;51.220;7.250;2022-07-12T11:43:29;1.08;;;0.80;;
54416;SDS011;40326;51.220;7.250;2022-07-12T11:45:55;1.38;;;0.93;;
54416;SDS011;40326;51.220;7.250;2022-07-12T11:48:21;2.08;;;0.90;;
54416;SDS011;40326;51.220;7.250;2022-07-12T11:50:49;1.13;;;0.80;;
54416;SDS011;40326;51.220;7.250;2022-07-12T11:53:18;2.03;;;0.90;;
54416;SDS011;40326;51.220;7.250;2022-07-12T11:55:53;1.58;;;0.90;;
54416;SDS011;40326;51.220;7.250;2022-07-12T11:58:22;1.15;;;0.70;;
54416;SDS011;40326;51.220;7.250;2022-07-12T12:00:48;0.88;;;0.73;;
54416;SDS011;40326;51.220;7.250;2022-07-12T12:03:15;1.88;;;0.75;;
54416;SDS011;40326;51.220;7.250;2022-07-12T12:05:42;1.50;;;0.93;;
54416;SDS011;40326;51.220;7.250;2022-07-12T12:08:09;0.90;;;0.70;;
54416;SDS011;40326;51.220;7.250;2022-07-12T12:10:36;1.27;;;0.73;;
54416;SDS011;40326;51.220;7.250;2022-07-12T12:13:02;2.20;;;0.80;;
54416;SDS011;40326;51.220;7.250;2022-07-12T12:15:31;0.95;;;0.77;;
54416;SDS011;40326;51.220;7.250;2022-07-12T12:18:04;1.73;;;0.80;;
54416;SDS011;40326;51.220;7.250;2022-07-12T12:20:32;0.80;;;0.65;;
54416;SDS011;40326;51.220;7.250;2022-07-12T12:23:02;1.30;;;0.60;;
54416;SDS011;40326;51.220;7.250;2022-07-12T12:25:29;1.15;;;0.70;;
54416;SDS011;40326;51.220;7.250;2022-07-12T12:27:59;1.13;;;0.70;;
54416;SDS011;40326;51.220;7.250;2022-07-12T12:30:26;1.77;;;0.80;;
54416;SDS011;40326;51.220;7.250;2022-07-12T12:32:53;1.15;;;0.70;;
54416;SDS011;40326;51.220;7.250;2022-07-12T12:35:24;0.60;;;0.57;;
54416;SDS011;40326;51.220;7.250;2022-07-12T12:40:25;1.02;;;0.60;;
54416;SDS011;40326;51.220;7.250;2022-07-12T12:43:09;1.65;;;0.80;;
54416;SDS011;40326;51.220;7.250;2022-07-12T12:45:36;1.45;;;0.70;;
54416;SDS011;40326;51.220;7.250;2022-07-12T12:48:17;1.00;;;0.60;;
54416;SDS011;40326;51.220;7.250;2022-07-12T12:50:45;1.20;;;0.70;;
54416;SDS011;40326;51.220;7.250;2022-07-12T12:53:19;1.65;;;0.70;;
54416;SDS011;40326;51.220;7.250;2022-07-12T12:55:50;0.88;;;0.70;;
54416;SDS011;40326;51.220;7.250;2022-07-12T12:58:17;1.08;;;0.68;;
54416;SDS011;40326;51.220;7.250;2022-07-12T13:00:44;0.95;;;0.75;;
54416;SDS011;40326;51.220;7.250;2022-07-12T13:03:13;1.50;;;0.70;;
54416;SDS011;40326;51.220;7.250;2022-07-12T13:05:40;1.17;;;0.70;;
54416;SDS011;40326;51.220;7.250;2022-07-12T13:08:06;0.93;;;0.70;;
54416;SDS011;40326;51.220;7.250;2022-07-12T13:10:33;1.25;;;0.60;;
54416;SDS011;40326;51.220;7.250;2022-07-12T13:12:59;4.13;;;0.85;;
54416;SDS011;40326;51.220;7.250;2022-07-12T13:15:26;1.13;;;0.65;;
54416;SDS011;40326;51.220;7.250;2022-07-12T13:17:52;1.15;;;0.80;;
54416;SDS011;40326;51.220;7.250;2022-07-12T13:20:18;0.73;;;0.60;;
54416;SDS011;40326;51.220;7.250;2022-07-12T13:22:44;1.20;;;0.73;;
54416;SDS011;40326;51.220;7.250;2022-07-12T13:25:10;1.63;;;0.68;;
54416;SDS011;40326;51.220;7.250;2022-07-12T13:27:37;1.40;;;0.60;;
54416;SDS011;40326;51.220;7.250;2022-07-12T13:30:04;1.88;;;0.80;;
54416;SDS011;40326;51.220;7.250;2022-07-12T13:32:32;2.50;;;0.90;;
54416;SDS011;40326;51.220;7.250;2022-07-12T13:34:58;1.38;;;0.70;;
54416;SDS011;40326;51.220;7.250;2022-07-12T13:37:24;3.47;;;1.17;;
54416;SDS011;40326;51.220;7.250;2022-07-12T13:39:50;1.60;;;1.17;;
54416;SDS011;40326;51.220;7.250;2022-07-12T13:42:33;1.67;;;1.00;;
54416;SDS011;40326;51.220;7.250;2022-07-12T13:44:59;1.25;;;0.85;;
54416;SDS011;40326;51.220;7.250;2022-07-12T13:47:25;1.85;;;1.10;;
54416;SDS011;40326;51.220;7.250;2022-07-12T13:49:51;2.22;;;1.23;;
54416;SDS011;40326;51.220;7.250;2022-07-12T13:52:16;2.13;;;1.20;;
54416;SDS011;40326;51.220;7.250;2022-07-12T13:54:42;2.85;;;1.60;;
54416;SDS011;40326;51.220;7.250;2022-07-12T13:59:43;3.10;;;1.50;;
54416;SDS011;40326;51.220;7.250;2022-07-12T14:02:09;1.55;;;1.10;;
54416;SDS011;40326;51.220;7.250;2022-07-12T14:04:34;4.30;;;1.60;;
54416;SDS011;40326;51.220;7.250;2022-07-12T14:07:00;3.67;;;1.30;;
54416;SDS011;40326;51.220;7.250;2022-07-12T14:09:25;2.60;;;1.42;;
54416;SDS011;40326;51.220;7.250;2022-07-12T14:11:51;3.58;;;1.40;;
54416;SDS011;40326;51.220;7.250;2022-07-12T14:14:16;2.20;;;1.50;;
54416;SDS011;40326;51.220;7.250;2022-07-12T14:16:59;2.53;;;1.40;;
54416;SDS011;40326;51.220;7.250;2022-07-12T14:19:24;2.45;;;1.40;;
54416;SDS011;40326;51.220;7.250;2022-07-12T14:21:49;3.75;;;1.70;;
54416;SDS011;40326;51.220;7.250;2022-07-12T14:24:15;2.88;;;1.33;;
54416;SDS011;40326;51.220;7.250;2022-07-12T14:26:40;2.55;;;1.48;;
54416;SDS011;40326;51.220;7.250;2022-07-12T14:29:05;3.35;;;1.58;;
54416;SDS011;40326;51.220;7.250;2022-07-12T14:31:31;2.90;;;1.50;;
54416;SDS011;40326;51.220;7.250;2022-07-12T14:33:56;3.72;;;1.58;;
54416;SDS011;40326;51.220;7.250;2022-07-12T14:36:22;3.75;;;1.40;;
54416;SDS011;40326;51.220;7.250;2022-07-12T14:38:47;2.53;;;1.40;;
54416;SDS011;40326;51.220;7.250;2022-07-12T14:41:13;5.63;;;1.60;;
54416;SDS011;40326;51.220;7.250;2022-07-12T14:43:39;2.85;;;1.70;;
54416;SDS011;40326;51.220;7.250;2022-07-12T14:46:04;3.30;;;1.60;;
54416;SDS011;40326;51.220;7.250;2022-07-12T14:48:30;3.20;;;1.60;;
54416;SDS011;40326;51.220;7.250;2022-07-12T14:50:55;4.43;;;1.77;;
54416;SDS011;40326;51.220;7.250;2022-07-12T14:53:20;4.03;;;1.55;;
54416;SDS011;40326;51.220;7.250;2022-07-12T14:55:46;2.03;;;1.42;;
54416;SDS011;40326;51.220;7.250;2022-07-12T14:58:11;3.03;;;1.40;;
54416;SDS011;40326;51.220;7.250;2022-07-12T15:00:37;4.38;;;1.83;;
54416;SDS011;40326;51.220;7.250;2022-07-12T15:03:02;3.70;;;1.40;;
54416;SDS011;40326;51.220;7.250;2022-07-12T15:05:28;2.83;;;1.40;;
54416;SDS011;40326;51.220;7.250;2022-07-12T15:07:53;4.22;;;1.50;;
54416;SDS011;40326;51.220;7.250;2022-07-12T15:10:19;3.50;;;1.50;;
54416;SDS011;40326;51.220;7.250;2022-07-12T15:12:44;2.72;;;1.50;;
54416;SDS011;40326;51.220;7.250;2022-07-12T15:15:10;2.72;;;1.60;;
54416;SDS011;40326;51.220;7.250;2022-07-12T15:17:35;3.47;;;1.60;;